createdAt,value
2018-09-17T00:03:34.215Z,57.20
2018-09-17T00:07:37.889Z,57.20
2018-09-17T00:11:41.568Z,57.30
2018-09-17T00:15:45.303Z,57.30
2018-09-17T00:19:49.053Z,57.30
2018-09-17T00:23:52.671Z,57.30
2018-09-17T00:27:56.340Z,57.30
2018-09-17T00:32:00.032Z,57.40
2018-09-17T00:36:03.833Z,57.40
2018-09-17T00:40:07.518Z,57.50
2018-09-17T00:44:11.284Z,57.50
2018-09-17T00:48:14.913Z,57.60
2018-09-17T00:52:18.577Z,57.60
2018-09-17T00:56:22.236Z,57.60
2018-09-17T01:00:25.899Z,57.70
2018-09-17T01:04:29.580Z,57.60
2018-09-17T01:08:33.272Z,57.60
2018-09-17T01:12:36.998Z,57.70
2018-09-17T01:16:40.680Z,57.20
2018-09-17T01:20:44.356Z,57.80
2018-09-17T01:24:48.116Z,58.20
2018-09-17T01:28:51.773Z,58.50
2018-09-17T01:32:55.505Z,58.90
2018-09-17T01:36:59.208Z,58.50
2018-09-17T01:41:02.980Z,58.20
2018-09-17T01:45:06.722Z,58.20
2018-09-17T01:49:10.399Z,58.70
2018-09-17T01:53:14.113Z,58.60
2018-09-17T01:57:17.825Z,58.60
2018-09-17T02:01:21.622Z,58.50
2018-09-17T02:05:25.366Z,58.70
2018-09-17T02:09:29.045Z,59.50
2018-09-17T02:13:32.885Z,58.60
2018-09-17T02:17:36.584Z,58.90
2018-09-17T02:21:40.343Z,58.80
2018-09-17T02:25:44.051Z,58.90
2018-09-17T02:29:47.732Z,59.00
2018-09-17T02:33:51.416Z,58.90
2018-09-17T02:37:55.169Z,58.70
2018-09-17T02:41:58.864Z,58.90
2018-09-17T02:46:02.532Z,58.70
2018-09-17T02:50:06.874Z,58.90
2018-09-17T02:54:10.528Z,58.00
2018-09-17T02:58:14.197Z,58.80
2018-09-17T03:02:17.890Z,58.70
2018-09-17T03:06:21.625Z,58.20
2018-09-17T03:10:25.303Z,58.80
2018-09-17T03:14:30.205Z,59.00
2018-09-17T03:18:57.396Z,58.70
2018-09-17T03:23:01.171Z,58.90
2018-09-17T03:27:04.913Z,58.90
2018-09-17T03:31:08.657Z,58.90
2018-09-17T03:35:12.303Z,58.90
2018-09-17T03:39:16.003Z,58.90
2018-09-17T03:43:19.685Z,59.00
2018-09-17T03:47:23.430Z,58.40
2018-09-17T03:51:27.104Z,59.00
2018-09-17T03:55:30.748Z,58.90
2018-09-17T03:59:34.433Z,59.10
2018-09-17T04:03:38.120Z,59.30
2018-09-17T04:07:41.803Z,59.40
2018-09-17T04:11:45.481Z,59.30
2018-09-17T04:15:49.140Z,59.20
2018-09-17T04:19:52.853Z,59.60
2018-09-17T04:23:56.569Z,58.50
2018-09-17T04:28:00.279Z,59.30
2018-09-17T04:32:04.013Z,59.40
2018-09-17T04:36:08.156Z,59.30
2018-09-17T04:40:11.959Z,59.30
2018-09-17T04:44:15.663Z,59.20
2018-09-17T04:48:19.439Z,59.20
2018-09-17T04:52:23.105Z,59.20
2018-09-17T04:56:26.814Z,59.30
2018-09-17T05:00:30.472Z,59.60
2018-09-17T05:04:34.148Z,59.30
2018-09-17T05:08:37.844Z,59.20
2018-09-17T05:12:41.553Z,59.20
2018-09-17T05:16:45.271Z,59.30
2018-09-17T05:20:48.967Z,58.80
2018-09-17T05:24:52.693Z,59.60
2018-09-17T05:28:56.425Z,59.70
2018-09-17T05:33:00.158Z,59.50
2018-09-17T05:37:03.926Z,59.50
2018-09-17T05:41:07.580Z,60.00
2018-09-17T05:45:11.337Z,59.40
2018-09-17T05:49:15.111Z,59.90
2018-09-17T05:53:18.850Z,59.70
2018-09-17T05:57:22.556Z,59.90
2018-09-17T06:01:26.256Z,60.50
2018-09-17T06:05:30.140Z,60.20
2018-09-17T06:09:33.870Z,60.80
2018-09-17T06:13:37.567Z,61.90
2018-09-17T06:17:41.265Z,61.30
2018-09-17T06:21:44.934Z,61.50
2018-09-17T06:25:48.645Z,61.90
2018-09-17T06:29:52.366Z,61.60
2018-09-17T06:33:56.056Z,62.10
2018-09-17T06:37:59.788Z,61.80
2018-09-17T06:42:03.564Z,61.40
2018-09-17T06:46:07.262Z,61.00
2018-09-17T06:50:11.005Z,60.90
2018-09-17T06:54:14.686Z,61.00
2018-09-17T06:58:18.376Z,61.20
2018-09-17T07:02:22.036Z,61.10
2018-09-17T07:06:25.737Z,61.20
2018-09-17T07:10:29.408Z,61.30
2018-09-17T07:14:33.122Z,61.10
2018-09-17T07:18:37.910Z,61.90
2018-09-17T07:22:41.601Z,61.10
2018-09-17T07:26:45.336Z,60.90
2018-09-17T07:30:49.071Z,60.50
2018-09-17T07:34:52.728Z,60.60
2018-09-17T07:38:56.431Z,61.00
2018-09-17T07:43:06.670Z,61.30
2018-09-17T07:47:10.383Z,61.30
2018-09-17T07:51:14.084Z,61.20
2018-09-17T07:55:17.756Z,61.50
2018-09-17T07:59:21.441Z,61.60
2018-09-17T08:03:25.125Z,61.40
2018-09-17T08:07:28.817Z,61.10
2018-09-17T08:11:32.606Z,60.80
2018-09-17T08:15:36.280Z,60.70
2018-09-17T08:19:39.972Z,60.60
2018-09-17T08:23:43.825Z,60.40
2018-09-17T08:27:47.616Z,60.20
2018-09-17T08:31:51.338Z,59.80
2018-09-17T08:35:55.118Z,59.90
2018-09-17T08:39:58.860Z,59.80
2018-09-17T08:44:02.556Z,59.80
2018-09-17T08:48:06.257Z,60.70
2018-09-17T08:52:09.941Z,59.90
2018-09-17T08:56:19.442Z,59.20
2018-09-17T09:00:27.308Z,59.80
2018-09-17T09:04:36.217Z,59.70
2018-09-17T09:08:39.873Z,59.50
2018-09-17T09:12:47.782Z,59.60
2018-09-17T09:16:51.462Z,59.20
2018-09-17T09:20:55.161Z,59.40
2018-09-17T09:24:58.837Z,59.50
2018-09-17T09:29:02.573Z,59.50
2018-09-17T09:33:06.304Z,59.30
2018-09-17T09:37:09.973Z,58.90
2018-09-17T09:41:13.648Z,58.60
2018-09-17T09:45:17.680Z,58.40
2018-09-17T09:49:21.414Z,58.80
2018-09-17T09:53:25.094Z,58.60
2018-09-17T09:57:28.779Z,58.00
2018-09-17T10:01:32.820Z,58.40
2018-09-17T10:05:36.466Z,57.80
2018-09-17T10:09:45.529Z,58.30
2018-09-17T10:13:54.646Z,57.90
2018-09-17T10:18:03.900Z,57.90
2018-09-17T10:22:07.590Z,58.10
2018-09-17T10:26:11.237Z,57.80
2018-09-17T10:30:14.993Z,56.90
2018-09-17T10:34:18.709Z,56.50
2018-09-17T10:38:22.453Z,56.70
2018-09-17T10:42:26.771Z,56.90
2018-09-17T10:46:30.481Z,56.80
2018-09-17T10:50:34.141Z,55.50
2018-09-17T10:54:37.818Z,55.70
2018-09-17T10:58:41.621Z,55.40
2018-09-17T11:02:45.393Z,55.40
2018-09-17T11:06:49.093Z,55.50
2018-09-17T11:10:52.753Z,56.30
2018-09-17T11:14:56.449Z,56.30
2018-09-17T11:19:00.131Z,56.30
2018-09-17T11:23:03.901Z,55.80
2018-09-17T11:27:07.582Z,55.10
2018-09-17T11:31:11.309Z,55.00
2018-09-17T11:35:15.009Z,55.00
2018-09-17T11:39:18.669Z,55.90
2018-09-17T11:43:22.373Z,54.60
2018-09-17T11:47:26.046Z,55.10
2018-09-17T11:51:29.736Z,55.50
2018-09-17T11:55:33.455Z,55.70
2018-09-17T11:59:37.211Z,55.60
2018-09-17T12:03:46.300Z,54.90
2018-09-17T12:07:50.018Z,55.30
2018-09-17T12:11:53.697Z,54.00
2018-09-17T12:15:57.330Z,54.90
2018-09-17T12:20:01.236Z,53.70
2018-09-17T12:24:04.967Z,54.60
2018-09-17T12:28:08.788Z,54.40
2018-09-17T12:32:12.509Z,53.80
2018-09-17T12:36:16.164Z,54.10
2018-09-17T12:40:19.841Z,53.60
2018-09-17T12:44:23.521Z,54.00
2018-09-17T12:48:29.013Z,54.50
2018-09-17T12:52:32.721Z,53.40
2018-09-17T12:56:36.401Z,52.90
2018-09-17T13:00:40.162Z,51.70
2018-09-17T13:04:43.843Z,53.00
2018-09-17T13:08:47.541Z,51.80
2018-09-17T13:12:51.246Z,52.40
2018-09-17T13:16:54.974Z,52.40
2018-09-17T13:20:58.723Z,51.60
2018-09-17T13:25:02.493Z,51.50
2018-09-17T13:29:06.205Z,51.90
2018-09-17T13:33:09.958Z,52.30
2018-09-17T13:37:13.684Z,52.10
2018-09-17T13:41:17.407Z,51.20
2018-09-17T13:45:21.121Z,51.70
2018-09-17T13:49:24.826Z,51.60
2018-09-17T13:53:28.626Z,49.00
2018-09-17T13:57:32.261Z,51.60
2018-09-17T14:01:36.050Z,50.20
2018-09-17T14:05:39.704Z,51.40
2018-09-17T14:09:43.536Z,51.70
2018-09-17T14:13:47.213Z,50.80
2018-09-17T14:17:50.920Z,50.10
2018-09-17T14:21:54.629Z,51.00
2018-09-17T14:25:58.430Z,49.80
2018-09-17T14:30:02.423Z,49.40
2018-09-17T14:34:06.099Z,50.50
2018-09-17T14:38:09.809Z,49.60
2018-09-17T14:42:13.498Z,51.00
2018-09-17T14:46:17.679Z,50.50
2018-09-17T14:50:21.316Z,50.30
2018-09-17T14:54:25.944Z,49.20
2018-09-17T14:58:29.675Z,48.80
2018-09-17T15:02:33.387Z,49.50
2018-09-17T15:06:37.154Z,47.40
2018-09-17T15:10:40.902Z,48.00
2018-09-17T15:14:44.614Z,49.80
2018-09-17T15:18:48.315Z,49.80
2018-09-17T15:22:52.019Z,48.60
2018-09-17T15:26:55.712Z,49.20
2018-09-17T15:30:59.492Z,48.80
2018-09-17T15:35:03.216Z,48.20
2018-09-17T15:39:09.738Z,48.40
2018-09-17T15:43:13.469Z,49.10
2018-09-17T16:18:13.185Z,47.60
2018-09-17T16:22:16.984Z,49.10
2018-09-17T16:26:20.668Z,49.10
2018-09-17T16:30:24.477Z,49.50
2018-09-17T16:34:28.192Z,49.60
2018-09-17T16:38:31.927Z,49.90
2018-09-17T16:42:35.618Z,50.10
2018-09-17T16:46:39.414Z,50.40
2018-09-17T16:50:43.189Z,50.30
2018-09-17T16:54:46.926Z,50.30
2018-09-17T16:58:50.767Z,50.40
2018-09-17T17:02:54.460Z,50.40
2018-09-17T17:06:58.193Z,50.50
2018-09-17T17:11:01.995Z,50.50
2018-09-17T17:15:05.843Z,50.50
2018-09-17T17:19:09.568Z,50.50
2018-09-17T17:23:13.254Z,50.40
2018-09-17T17:27:16.957Z,50.60
2018-09-17T17:31:20.688Z,50.50
2018-09-17T17:35:24.467Z,50.30
2018-09-17T17:39:28.260Z,50.40
2018-09-17T17:43:32.222Z,50.50
2018-09-17T17:47:35.927Z,50.50
2018-09-17T17:51:39.638Z,50.50
2018-09-17T17:55:43.440Z,50.60
2018-09-17T17:59:47.184Z,50.40
2018-09-17T18:03:50.935Z,50.40
2018-09-17T18:07:54.636Z,50.40
2018-09-17T18:11:58.315Z,50.60
2018-09-17T18:16:02.109Z,50.60
2018-09-17T18:20:06.597Z,50.70
2018-09-17T18:24:10.257Z,50.70
2018-09-17T18:28:13.949Z,50.80
2018-09-17T18:32:17.667Z,50.80
2018-09-17T18:36:21.757Z,50.80
2018-09-17T18:40:25.461Z,50.80
2018-09-17T18:44:29.142Z,50.80
2018-09-17T18:48:32.898Z,50.90
2018-09-17T18:52:36.552Z,51.10
2018-09-17T18:56:40.379Z,51.10
2018-09-17T19:00:44.154Z,51.10
2018-09-17T19:04:47.841Z,51.30
2018-09-17T19:08:51.586Z,51.70
2018-09-17T19:12:55.261Z,51.20
2018-09-17T19:16:59.059Z,51.40
2018-09-17T19:21:03.980Z,51.40
2018-09-17T19:25:07.537Z,51.50
2018-09-17T19:29:16.816Z,51.50
2018-09-17T19:33:20.573Z,51.60
2018-09-17T19:37:29.705Z,51.60
2018-09-17T19:41:33.609Z,51.70
2018-09-17T19:45:42.533Z,51.70
2018-09-17T19:49:46.388Z,51.10
2018-09-17T19:53:50.071Z,51.70
2018-09-17T19:57:59.033Z,51.80
2018-09-17T20:02:02.796Z,51.80
2018-09-17T20:06:11.774Z,51.90
2018-09-17T20:10:15.645Z,52.10
2018-09-17T20:14:19.367Z,52.20
2018-09-17T20:18:23.060Z,52.20
2018-09-17T20:22:26.753Z,52.30
2018-09-17T20:26:30.402Z,52.30
2018-09-17T20:30:34.114Z,52.40
2018-09-17T20:34:37.824Z,52.50
2018-09-17T20:38:41.687Z,52.40
2018-09-17T20:42:45.274Z,52.50
2018-09-17T20:46:48.973Z,52.50
2018-09-17T20:50:52.658Z,52.50
2018-09-17T20:54:56.361Z,52.60
2018-09-17T20:59:00.094Z,52.50
2018-09-17T21:03:03.813Z,52.50
2018-09-17T21:07:07.532Z,52.50
2018-09-17T21:11:11.220Z,52.60
2018-09-17T21:15:14.921Z,52.60
2018-09-17T21:19:18.631Z,52.70
2018-09-17T21:23:22.345Z,52.70
2018-09-17T21:27:26.054Z,52.70
2018-09-17T21:31:29.784Z,52.80
2018-09-17T21:35:33.469Z,52.80
2018-09-17T21:39:37.164Z,52.80
2018-09-17T21:43:40.869Z,53.40
2018-09-17T21:47:44.569Z,52.90
2018-09-17T21:51:48.269Z,53.00
2018-09-17T21:55:52.297Z,53.10
2018-09-17T21:59:56.065Z,53.10
2018-09-17T22:03:59.724Z,53.10
2018-09-17T22:08:03.420Z,53.20
2018-09-17T22:12:07.199Z,53.20
2018-09-17T22:16:10.901Z,53.40
2018-09-17T22:20:14.634Z,53.60
2018-09-17T22:24:18.301Z,53.80
2018-09-17T22:28:22.136Z,54.10
2018-09-17T22:32:25.843Z,54.00
2018-09-17T22:36:29.557Z,54.10
2018-09-17T22:40:33.243Z,53.80
2018-09-17T22:44:36.925Z,54.40
2018-09-17T22:48:40.703Z,54.30
2018-09-17T22:52:44.388Z,54.30
2018-09-17T22:56:48.057Z,54.30
2018-09-17T23:00:51.750Z,54.90
2018-09-17T23:04:55.400Z,54.20
2018-09-17T23:08:59.112Z,54.20
2018-09-17T23:13:02.841Z,54.10
2018-09-17T23:17:06.544Z,54.00
2018-09-17T23:21:10.214Z,54.00
2018-09-17T23:25:13.872Z,54.00
2018-09-17T23:29:17.572Z,54.00
2018-09-17T23:33:21.355Z,54.00
2018-09-17T23:37:25.030Z,54.10
2018-09-17T23:41:28.728Z,54.30
2018-09-17T23:45:32.384Z,55.20
2018-09-17T23:49:36.085Z,54.50
2018-09-17T23:53:39.794Z,54.40
2018-09-17T23:57:43.475Z,54.30
